Time;durP1;ratioP1;P1;durP2;ratioP2;P2;SDS_P1;SDS_P2;PMS_P1;PMS_P2;Temp;Humidity;BMP_temperature;BMP_pressure;BME280_temperature;BME280_humidity;BME280_pressure;Samples;Min_cycle;Max_cycle;Signal;HPM_P1;HPM_P2
2021/12/23 00:03:22;;;;;;;28.75;13.63;;;;;;;-3.58;94.88;100216.13;8171305;29;20040;-78
2021/12/23 00:07:22;;;;;;;33.30;14.40;;;;;;;-3.61;94.96;100209.19;8140839;29;20064;-78
2021/12/23 00:11:23;;;;;;;33.38;14.05;;;;;;;-3.59;95.10;100206.34;8159349;29;20040;-79
2021/12/23 00:19:47;;;;;;;30.45;13.50;;;;;;;-3.54;95.91;100190.56;8167311;29;20071;-78
2021/12/23 00:23:48;;;;;;;29.65;13.95;;;;;;;-3.49;95.23;100185.59;8180663;29;20051;-79
2021/12/23 00:27:48;;;;;;;25.98;12.75;;;;;;;-3.45;95.45;100166.28;8160536;29;20521;-78
2021/12/23 00:31:49;;;;;;;33.17;14.27;;;;;;;-3.39;95.40;100159.44;8166933;29;20039;-79
2021/12/23 00:35:50;;;;;;;26.98;13.52;;;;;;;-3.35;95.46;100166.22;8185129;29;20044;-79
2021/12/23 00:39:52;;;;;;;33.10;14.82;;;;;;;-3.31;95.90;100162.22;8133304;29;20056;-79
2021/12/23 00:43:52;;;;;;;28.65;14.02;;;;;;;-3.30;95.48;100150.44;8156145;29;20052;-78
2021/12/23 00:47:53;;;;;;;33.35;14.85;;;;;;;-3.30;95.00;100149.56;8163114;29;20420;-79
2021/12/23 00:51:54;;;;;;;32.72;13.73;;;;;;;-3.34;95.73;100151.72;8146549;29;20056;-78
2021/12/23 00:55:55;;;;;;;30.65;14.45;;;;;;;-3.34;95.79;100158.97;8168303;28;20044;-78
2021/12/23 00:59:57;;;;;;;30.83;14.30;;;;;;;-3.37;95.87;100138.56;8175054;29;20050;-79
2021/12/23 01:03:58;;;;;;;33.92;14.98;;;;;;;-3.31;95.17;100131.72;8148810;29;20104;-79
2021/12/23 01:07:58;;;;;;;35.40;14.18;;;;;;;-3.28;94.91;100131.41;8168461;29;20448;-79
2021/12/23 01:11:59;;;;;;;31.73;14.55;;;;;;;-3.28;95.01;100134.13;8137737;29;20040;-79
2021/12/23 01:16:13;;;;;;;35.22;14.68;;;;;;;-3.33;94.80;100134.59;8144267;29;20051;-79
2021/12/23 01:20:13;;;;;;;29.90;14.02;;;;;;;-3.30;95.30;100123.50;8173958;29;20557;-79
2021/12/23 01:24:14;;;;;;;34.55;15.07;;;;;;;-3.25;95.97;100104.16;8164305;29;20098;-79
2021/12/23 01:28:14;;;;;;;37.00;15.65;;;;;;;-3.19;95.44;100097.31;8176686;29;20047;-79
2021/12/23 01:32:14;;;;;;;30.70;14.50;;;;;;;-3.16;95.71;100103.22;8169330;29;20094;-79
2021/12/23 01:36:16;;;;;;;29.63;14.88;;;;;;;-3.11;94.64;100105.47;8171654;28;20051;-79
2021/12/23 01:40:19;;;;;;;30.23;14.38;;;;;;;-3.22;94.82;100099.31;8160633;29;20063;-79
2021/12/23 01:44:19;;;;;;;31.52;14.35;;;;;;;-3.23;95.30;100105.72;8158130;29;20043;-79
2021/12/23 01:48:22;;;;;;;28.92;13.43;;;;;;;-3.23;95.06;100104.88;8156470;29;20059;-78
2021/12/23 01:52:25;;;;;;;29.48;13.73;;;;;;;-3.23;95.00;100099.47;8142441;29;20044;-78
2021/12/23 01:56:26;;;;;;;35.25;15.05;;;;;;;-3.28;95.56;100082.91;8159696;29;20289;-78
2021/12/23 02:00:30;;;;;;;32.60;14.35;;;;;;;-3.38;95.31;100072.22;8150751;29;20051;-79
2021/12/23 02:04:30;;;;;;;32.55;14.48;;;;;;;-3.45;96.12;100060.34;8154834;29;20039;-79
2021/12/23 02:08:32;;;;;;;32.58;15.35;;;;;;;-3.38;96.51;100058.75;8143068;29;20040;-79
2021/12/23 02:12:33;;;;;;;30.30;14.17;;;;;;;-3.30;96.33;100071.44;8144133;29;20050;-79
2021/12/23 02:16:40;;;;;;;28.73;14.07;;;;;;;-3.39;95.48;100073.22;8483746;27;20379;-79
2021/12/23 02:20:41;;;;;;;34.95;13.70;;;;;;;-3.40;96.17;100058.03;8486847;27;20023;-79
2021/12/23 02:24:41;;;;;;;32.10;14.57;;;;;;;-3.35;95.95;100039.56;8480055;28;20059;-79
2021/12/23 02:28:41;;;;;;;32.30;14.13;;;;;;;-3.36;95.33;100037.88;8459706;28;20712;-80
2021/12/23 02:32:43;;;;;;;33.50;15.40;;;;;;;-3.41;95.39;100029.41;8476773;28;20035;-79
2021/12/23 02:36:56;;;;;;;29.60;15.13;;;;;;;-3.39;95.58;100046.28;8482966;27;20768;-79
2021/12/23 02:40:57;;;;;;;30.90;14.75;;;;;;;-3.47;95.12;100048.88;8467354;28;20037;-79
2021/12/23 02:44:58;;;;;;;30.63;14.20;;;;;;;-3.49;95.43;100019.41;8486203;27;20032;-79
2021/12/23 02:48:58;;;;;;;33.97;14.60;;;;;;;-3.51;96.05;100013.34;8484668;28;20606;-79
2021/12/23 02:52:59;;;;;;;33.92;15.05;;;;;;;-3.57;95.90;100016.66;8472761;28;20024;-80
2021/12/23 02:57:00;;;;;;;32.35;15.05;;;;;;;-3.54;96.16;100018.16;8479572;28;20047;-79
2021/12/23 03:01:04;;;;;;;37.67;15.38;;;;;;;-3.61;95.79;100011.72;8472139;28;20032;-79
2021/12/23 03:05:05;;;;;;;38.38;15.13;;;;;;;-3.67;96.62;100014.00;8496091;28;20035;-80
2021/12/23 03:09:05;;;;;;;30.60;14.35;;;;;;;-3.64;97.70;100009.31;8485203;28;20056;-79
2021/12/23 03:13:06;;;;;;;34.53;14.25;;;;;;;-3.64;96.91;100009.31;8477074;28;20034;-78
2021/12/23 03:17:06;;;;;;;33.67;16.83;;;;;;;-3.69;96.95;100021.41;8483594;28;20046;-79
2021/12/23 03:21:07;;;;;;;35.17;13.82;;;;;;;-3.80;97.38;100021.63;8470550;28;20032;-78
2021/12/23 03:25:08;;;;;;;32.35;15.27;;;;;;;-3.86;97.88;100014.16;8474234;28;20732;-79
2021/12/23 03:29:11;;;;;;;34.53;14.00;;;;;;;-3.88;97.79;99996.47;8448998;28;20413;-79
2021/12/23 03:33:12;;;;;;;33.20;14.30;;;;;;;-3.88;98.38;99988.38;8448003;28;20035;-79
2021/12/23 03:37:12;;;;;;;34.22;15.57;;;;;;;-3.90;98.46;99975.94;8443391;28;20039;-79
2021/12/23 03:41:15;;;;;;;34.85;14.50;;;;;;;-3.88;97.80;99970.38;8437289;28;20374;-79
2021/12/23 03:45:16;;;;;;;35.05;15.82;;;;;;;-3.83;97.69;99973.47;8437009;28;20501;-79
2021/12/23 03:49:16;;;;;;;30.48;14.57;;;;;;;-3.85;96.98;99975.47;8441637;28;20043;-79
2021/12/23 03:53:17;;;;;;;28.50;13.93;;;;;;;-3.90;97.42;99964.28;8445447;28;20031;-78
2021/12/23 03:57:18;;;;;;;31.05;14.38;;;;;;;-3.98;97.27;99957.00;8434464;28;20097;-79
2021/12/23 04:01:19;;;;;;;36.10;15.68;;;;;;;-4.07;97.89;99947.16;8439855;28;20070;-80
2021/12/23 04:05:19;;;;;;;36.17;16.95;;;;;;;-4.11;98.26;99945.75;8458271;27;20038;-78
2021/12/23 04:09:21;;;;;;;38.05;17.60;;;;;;;-4.08;98.69;99939.22;8444608;28;20092;-78
2021/12/23 04:13:22;;;;;;;37.00;16.75;;;;;;;-4.08;98.39;99937.38;8443886;28;20032;-79
2021/12/23 04:17:22;;;;;;;35.83;17.05;;;;;;;-4.04;98.15;99930.69;8436742;28;20032;-78
2021/12/23 04:21:23;;;;;;;32.00;14.68;;;;;;;-3.99;97.98;99922.13;8447148;28;20024;-79
2021/12/23 04:25:25;;;;;;;36.05;15.15;;;;;;;-4.02;97.96;99922.44;8452069;28;20111;-79
2021/12/23 04:29:26;;;;;;;35.85;15.05;;;;;;;-4.19;99.16;99925.00;8460687;28;20050;-79
2021/12/23 04:33:27;;;;;;;38.03;16.58;;;;;;;-4.11;100.00;99921.53;8446312;28;20032;-79
2021/12/23 04:37:27;;;;;;;35.30;15.63;;;;;;;-4.05;99.22;99917.38;8447312;28;20040;-79
2021/12/23 04:41:28;;;;;;;38.33;16.38;;;;;;;-4.00;99.84;99917.78;8447471;27;20628;-79
2021/12/23 04:45:29;;;;;;;33.97;15.63;;;;;;;-3.87;99.46;99912.84;8457849;28;20028;-78
2021/12/23 04:49:29;;;;;;;40.10;15.52;;;;;;;-3.83;98.90;99899.94;8445833;28;20424;-79
2021/12/23 04:53:29;;;;;;;39.40;16.42;;;;;;;-3.80;98.05;99889.69;8442418;28;20476;-79
2021/12/23 04:57:30;;;;;;;36.40;15.40;;;;;;;-3.83;97.86;99881.09;8452297;28;20089;-79
2021/12/23 05:01:32;;;;;;;38.55;16.63;;;;;;;-3.81;98.71;99885.28;8442518;28;20023;-79
2021/12/23 05:05:32;;;;;;;34.05;16.25;;;;;;;-3.74;99.08;99866.69;8443745;28;20103;-79
2021/12/23 05:09:33;;;;;;;39.38;16.00;;;;;;;-3.65;98.70;99867.59;8467931;27;20043;-79
2021/12/23 05:13:33;;;;;;;36.72;16.25;;;;;;;-3.69;98.11;99859.84;8477985;28;20032;-79
2021/12/23 05:17:34;;;;;;;37.65;16.30;;;;;;;-3.74;98.51;99855.91;8472722;28;20071;-78
2021/12/23 05:21:34;;;;;;;36.58;16.52;;;;;;;-3.76;98.80;99856.06;8470282;28;20055;-78
2021/12/23 05:25:35;;;;;;;35.85;16.73;;;;;;;-3.76;98.85;99852.53;8463412;28;20044;-79
2021/12/23 05:29:35;;;;;;;37.42;15.77;;;;;;;-3.74;98.80;99869.38;8442506;28;20032;-79
2021/12/23 05:33:36;;;;;;;40.95;18.15;;;;;;;-3.80;99.12;99872.69;8440369;28;20039;-78
2021/12/23 05:37:37;;;;;;;41.15;17.27;;;;;;;-3.82;98.78;99867.44;8440004;28;20433;-79
2021/12/23 05:41:37;;;;;;;39.03;17.35;;;;;;;-3.79;98.85;99856.38;8437334;28;20036;-79
2021/12/23 05:45:38;;;;;;;39.60;17.73;;;;;;;-3.70;99.21;99852.72;8438043;28;20554;-79
2021/12/23 05:49:38;;;;;;;41.78;19.17;;;;;;;-3.65;98.84;99860.34;8446417;28;20110;-79
2021/12/23 05:53:39;;;;;;;44.83;19.17;;;;;;;-3.62;99.11;99859.19;8437743;28;20028;-79
2021/12/23 05:57:40;;;;;;;36.47;17.15;;;;;;;-3.59;98.54;99861.56;8435284;28;20036;-79
2021/12/23 06:01:40;;;;;;;44.70;19.25;;;;;;;-3.54;98.24;99865.50;8437031;28;20523;-79
2021/12/23 06:05:41;;;;;;;42.30;18.27;;;;;;;-3.55;98.48;99855.69;8445719;28;20028;-79
2021/12/23 06:09:41;;;;;;;40.28;20.38;;;;;;;-3.62;98.93;99853.81;8443571;28;20034;-79
2021/12/23 06:13:41;;;;;;;45.67;17.70;;;;;;;-3.59;98.91;99837.34;8436563;28;20078;-78
2021/12/23 06:17:42;;;;;;;41.47;17.90;;;;;;;-3.57;99.03;99832.63;8436853;28;20034;-79
2021/12/23 06:21:43;;;;;;;41.90;18.38;;;;;;;-3.53;98.83;99810.59;8434940;28;20038;-78
2021/12/23 06:25:44;;;;;;;49.83;18.63;;;;;;;-3.51;98.22;99805.91;8439299;28;20032;-79
2021/12/23 06:29:44;;;;;;;47.28;19.70;;;;;;;-3.48;98.88;99805.59;8445553;28;20038;-80
2021/12/23 06:33:45;;;;;;;43.78;18.83;;;;;;;-3.45;98.08;99791.81;8449620;28;20123;-79
2021/12/23 06:37:45;;;;;;;46.47;20.13;;;;;;;-3.34;98.35;99796.03;8425623;28;20066;-79
2021/12/23 06:41:46;;;;;;;43.35;18.20;;;;;;;-3.37;98.21;99782.91;8430544;28;20024;-80
2021/12/23 06:45:46;;;;;;;44.30;18.38;;;;;;;-3.30;98.34;99775.00;8441325;28;20038;-80
2021/12/23 06:49:47;;;;;;;47.83;18.90;;;;;;;-3.21;98.24;99771.38;8448761;28;20028;-80
2021/12/23 06:53:47;;;;;;;54.33;20.30;;;;;;;-3.21;97.79;99772.22;8444538;28;20099;-79
2021/12/23 06:57:53;;;;;;;41.80;18.75;;;;;;;-3.13;98.20;99775.94;8447563;28;20042;-77
2021/12/23 07:01:54;;;;;;;47.55;20.80;;;;;;;-3.11;97.48;99776.63;8455900;28;20034;-80
2021/12/23 07:06:03;;;;;;;48.00;18.60;;;;;;;-3.25;97.73;99776.22;8456604;28;20489;-81
2021/12/23 07:10:04;;;;;;;43.17;17.58;;;;;;;-3.29;98.46;99785.63;8440824;28;20116;-81
2021/12/23 07:14:04;;;;;;;46.97;19.70;;;;;;;-3.39;97.75;99795.72;8451693;28;20028;-81
2021/12/23 07:18:05;;;;;;;44.63;19.45;;;;;;;-3.45;97.94;99774.75;8459720;28;20042;-81
2021/12/23 07:22:06;;;;;;;51.63;19.48;;;;;;;-3.43;97.76;99778.16;8449106;28;20023;-80
2021/12/23 07:26:06;;;;;;;45.97;20.95;;;;;;;-3.46;97.67;99791.94;8437484;28;20552;-79
2021/12/23 07:30:09;;;;;;;44.53;19.27;;;;;;;-3.52;97.29;99797.97;8437260;28;20040;-78
2021/12/23 07:34:10;;;;;;;49.35;20.27;;;;;;;-3.57;98.13;99786.81;8450234;28;20028;-81
2021/12/23 07:38:10;;;;;;;47.38;19.25;;;;;;;-3.62;98.24;99778.41;8449076;27;20032;-80
2021/12/23 07:42:15;;;;;;;46.83;18.95;;;;;;;-3.63;98.35;99790.16;8439537;28;20044;-78
2021/12/23 07:46:15;;;;;;;48.58;20.17;;;;;;;-3.62;98.50;99794.56;8437897;28;20028;-78
2021/12/23 07:50:16;;;;;;;56.80;21.27;;;;;;;-3.54;98.19;99778.44;8448928;28;20058;-81
2021/12/23 07:54:17;;;;;;;54.08;23.58;;;;;;;-3.49;98.60;99768.03;8441394;28;20035;-80
2021/12/23 07:58:17;;;;;;;44.25;19.50;;;;;;;-3.35;98.86;99745.03;8450348;28;20446;-80
2021/12/23 08:02:19;;;;;;;50.58;21.33;;;;;;;-3.23;98.53;99744.56;8453190;28;20099;-80
2021/12/23 08:06:20;;;;;;;46.70;20.73;;;;;;;-3.11;97.88;99750.50;8451201;27;20028;-80
2021/12/23 08:10:20;;;;;;;46.60;19.35;;;;;;;-2.88;97.77;99749.91;8452019;28;20043;-77
2021/12/23 08:14:22;;;;;;;47.22;20.85;;;;;;;-2.69;97.30;99746.06;8450298;28;21200;-79
2021/12/23 08:18:22;;;;;;;49.55;19.92;;;;;;;-2.49;96.73;99744.75;8446316;28;20435;-80
2021/12/23 08:22:24;;;;;;;48.58;21.73;;;;;;;-2.39;95.65;99755.38;8443767;28;20039;-80
2021/12/23 08:26:28;;;;;;;50.03;21.13;;;;;;;-2.33;95.44;99774.44;8455354;28;20495;-81
2021/12/23 08:30:29;;;;;;;41.50;19.85;;;;;;;-2.28;94.98;99767.69;8448053;28;20058;-79
2021/12/23 08:34:34;;;;;;;52.97;20.63;;;;;;;-2.15;94.59;99773.41;8462058;27;20068;-80
2021/12/23 08:38:34;;;;;;;48.03;19.85;;;;;;;-2.00;94.03;99750.13;8459714;27;20028;-82
2021/12/23 08:42:36;;;;;;;51.38;21.63;;;;;;;-1.98;94.28;99726.50;8449088;28;20035;-79
2021/12/23 08:46:36;;;;;;;48.72;20.13;;;;;;;-1.84;93.26;99728.50;8451220;28;20031;-79
2021/12/23 08:50:40;;;;;;;48.95;20.02;;;;;;;-1.70;93.26;99718.84;8433465;28;20139;-80
2021/12/23 08:54:42;;;;;;;46.05;18.95;;;;;;;-1.48;93.30;99719.97;8440143;28;20155;-80
2021/12/23 08:58:43;;;;;;;45.60;19.33;;;;;;;-1.46;92.15;99717.94;8442410;27;20392;-80
2021/12/23 09:02:44;;;;;;;47.53;19.77;;;;;;;-1.36;91.99;99714.19;8442409;28;20049;-80
2021/12/23 09:06:44;;;;;;;49.05;20.08;;;;;;;-1.26;91.25;99714.81;8449752;27;20024;-80
2021/12/23 09:10:45;;;;;;;48.15;18.05;;;;;;;-1.21;90.80;99713.25;8441799;28;20051;-80
2021/12/23 09:14:46;;;;;;;46.53;18.10;;;;;;;-1.22;90.62;99700.78;8461329;28;20465;-80
2021/12/23 09:18:47;;;;;;;46.58;20.70;;;;;;;-1.05;90.80;99704.22;8456067;28;20044;-79
2021/12/23 09:22:48;;;;;;;41.88;18.85;;;;;;;-0.87;90.00;99695.81;8446817;28;20576;-79
2021/12/23 09:27:02;;;;;;;42.33;19.80;;;;;;;-0.79;89.30;99697.66;8438521;28;20634;-80
2021/12/23 09:35:24;;;;;;;44.72;18.17;;;;;;;-0.57;87.81;99694.09;8450058;28;20131;-80
2021/12/23 09:39:27;;;;;;;46.97;17.73;;;;;;;-0.36;87.72;99698.00;8446002;27;20035;-79
2021/12/23 09:43:28;;;;;;;;;;;;;;;-0.39;86.63;99698.34;8439607;28;20384;-78
2021/12/23 09:47:32;;;;;;;37.35;15.77;;;;;;;-0.20;86.65;99692.44;8443101;28;19919;-79
2021/12/23 09:51:34;;;;;;;36.88;16.00;;;;;;;-0.19;85.96;99696.00;8433386;28;20089;-78
2021/12/23 09:55:36;;;;;;;41.15;17.17;;;;;;;-0.15;86.08;99692.75;8432526;28;20028;-78
2021/12/23 09:59:37;;;;;;;38.55;17.70;;;;;;;-0.10;85.80;99673.22;8433716;28;20049;-78
2021/12/23 10:03:38;;;;;;;47.45;18.10;;;;;;;0.05;85.63;99681.38;8452813;28;20493;-78
2021/12/23 10:07:41;;;;;;;43.55;18.33;;;;;;;0.12;84.90;99679.59;8448774;28;20049;-78
2021/12/23 10:37:19;;;;;;;38.42;16.88;;;;;;;0.47;83.48;99641.94;8460214;28;20036;-78
2021/12/23 10:41:27;;;;;;;39.50;16.05;;;;;;;0.62;83.72;99630.03;8443921;27;20110;-78
2021/12/23 10:45:55;;;;;;;34.15;15.98;;;;;;;0.65;83.15;99617.97;8458080;28;20039;-79
2021/12/23 10:50:13;;;;;;;40.58;16.80;;;;;;;0.89;83.03;99605.94;8462342;28;20043;-78
2021/12/23 10:58:00;;;;;;;36.30;17.05;;;;;;;0.95;82.44;99604.31;8459459;28;20062;-79
2021/12/23 10:59:10;;;;;;;33.58;15.52;;;;;;;1.04;81.25;99600.44;8441835;28;20031;-78
2021/12/23 11:03:29;;;;;;;37.28;16.52;;;;;;;1.10;81.52;99595.09;8460973;28;20054;-78
2021/12/23 11:07:55;;;;;;;34.80;16.95;;;;;;;1.22;81.32;99579.16;8463095;27;20123;-79
2021/12/23 11:30:05;;;;;;;35.03;16.73;;;;;;;1.51;80.10;99555.56;8440724;28;20031;-79
2021/12/23 11:38:15;;;;;;;35.65;16.55;;;;;;;1.68;79.99;99527.06;8453160;27;20067;-79
2021/12/23 11:42:28;;;;;;;34.50;15.50;;;;;;;1.68;80.05;99521.63;8438175;28;20080;-78
2021/12/23 11:46:57;;;;;;;32.70;16.15;;;;;;;1.62;80.10;99516.16;8450543;28;20028;-78
2021/12/23 11:54:58;;;;;;;35.58;16.92;;;;;;;1.44;80.66;99508.53;8442070;28;20039;-80
2021/12/23 11:59:02;;;;;;;32.10;15.60;;;;;;;1.50;80.95;99494.97;8444845;28;20028;-79
2021/12/23 12:03:06;;;;;;;35.50;16.42;;;;;;;1.69;81.10;99501.56;8426203;28;20027;-79
2021/12/23 12:07:19;;;;;;;35.17;15.77;;;;;;;1.97;80.87;99500.69;8458370;27;20062;-79
2021/12/23 12:11:23;;;;;;;31.88;15.65;;;;;;;1.93;80.11;99512.97;8459776;28;20028;-79
2021/12/23 12:15:38;;;;;;;33.35;17.10;;;;;;;2.05;80.04;99495.94;8447929;28;20507;-79
2021/12/23 12:20:11;;;;;;;32.83;16.70;;;;;;;1.99;79.83;99502.16;8452113;28;20538;-79
2021/12/23 12:24:13;;;;;;;36.53;17.27;;;;;;;1.99;80.06;99496.72;8444604;28;20043;-79
2021/12/23 12:28:17;;;;;;;37.08;18.05;;;;;;;2.11;80.19;99504.28;8434855;28;20036;-80
2021/12/23 12:32:44;;;;;;;34.60;15.02;;;;;;;2.26;80.01;99499.53;8457529;28;20046;-80
2021/12/23 12:36:50;;;;;;;38.53;18.35;;;;;;;2.27;79.45;99488.47;8451657;28;20080;-80
2021/12/23 12:40:59;;;;;;;33.85;15.25;;;;;;;2.38;79.36;99489.78;8459445;27;20023;-81
2021/12/23 12:45:10;;;;;;;30.92;16.65;;;;;;;2.40;79.86;99473.22;8438477;28;20048;-79
2021/12/23 12:49:28;;;;;;;39.13;16.98;;;;;;;2.54;79.80;99461.34;8445486;28;20039;-80
2021/12/23 12:53:31;;;;;;;34.13;16.85;;;;;;;2.64;79.77;99460.94;8440890;28;20039;-79
2021/12/23 12:57:39;;;;;;;37.15;16.48;;;;;;;2.68;79.30;99463.06;8438564;28;20055;-81
2021/12/23 13:01:47;;;;;;;33.83;16.13;;;;;;;2.74;79.18;99456.78;8444787;28;20034;-81
2021/12/23 13:05:53;;;;;;;33.42;16.20;;;;;;;2.85;79.39;99458.03;8452770;28;20043;-82
2021/12/23 13:10:01;;;;;;;30.80;15.00;;;;;;;2.94;78.78;99453.22;8455103;28;20475;-80
2021/12/23 13:14:22;;;;;;;31.83;16.08;;;;;;;2.83;78.87;99453.88;8441015;28;20058;-80
2021/12/23 13:19:13;;;;;;;26.65;15.48;;;;;;;2.95;79.30;99430.41;8454294;27;20086;-80
2021/12/23 13:23:31;;;;;;;28.38;14.73;;;;;;;2.93;79.27;99427.88;8447152;28;20574;-80
2021/12/23 13:27:32;;;;;;;30.63;14.18;;;;;;;3.00;79.57;99429.78;8449544;28;20650;-80
2021/12/23 13:31:36;;;;;;;27.98;14.82;;;;;;;3.05;79.82;99405.50;8420594;28;20085;-80
2021/12/23 13:35:36;;;;;;;38.10;15.63;;;;;;;3.10;79.85;99390.19;8453472;28;20027;-80
2021/12/23 13:39:40;;;;;;;28.80;13.93;;;;;;;3.26;79.60;99372.56;8447839;28;20072;-81
2021/12/23 13:43:41;;;;;;;30.88;14.10;;;;;;;3.33;79.66;99372.53;8437347;28;20111;-79
2021/12/23 13:47:43;;;;;;;32.40;14.90;;;;;;;3.44;80.05;99374.59;8435836;28;20520;-81
2021/12/23 13:51:47;;;;;;;26.95;13.60;;;;;;;3.51;79.80;99364.53;8436781;28;20097;-81
2021/12/23 13:55:50;;;;;;;26.13;13.02;;;;;;;3.67;79.30;99365.13;8442981;28;20090;-80
2021/12/23 13:59:54;;;;;;;28.48;13.05;;;;;;;3.69;79.00;99358.41;8454958;28;20027;-81
2021/12/23 14:03:54;;;;;;;24.90;12.82;;;;;;;3.71;78.42;99355.44;8450673;28;20039;-80
2021/12/23 14:07:54;;;;;;;27.65;12.75;;;;;;;3.65;79.07;99346.25;8457480;28;20041;-81
2021/12/23 14:11:55;;;;;;;26.00;12.32;;;;;;;3.69;79.27;99330.28;8450735;28;20028;-81
2021/12/23 14:15:56;;;;;;;28.25;13.05;;;;;;;3.69;79.22;99319.38;8453383;28;20042;-82
2021/12/23 14:24:30;;;;;;;29.98;12.93;;;;;;;3.84;79.48;99333.59;8444402;28;20088;-81
2021/12/23 14:28:38;;;;;;;25.20;11.75;;;;;;;3.86;78.72;99315.09;8432595;28;20086;-82
2021/12/23 14:32:38;;;;;;;25.48;10.05;;;;;;;3.91;79.15;99311.75;8437470;28;20067;-82
2021/12/23 14:36:42;;;;;;;22.45;10.95;;;;;;;3.96;79.16;99301.84;8450300;28;20032;-82
2021/12/23 14:40:42;;;;;;;22.60;10.90;;;;;;;4.01;78.33;99314.81;8450235;28;20056;-81
2021/12/23 14:44:43;;;;;;;26.20;10.60;;;;;;;3.99;78.33;99297.88;8452905;28;20024;-81
2021/12/23 14:48:56;;;;;;;22.48;11.30;;;;;;;4.05;78.72;99300.53;8448538;28;20071;-81
2021/12/23 14:52:57;;;;;;;22.80;11.02;;;;;;;4.03;78.35;99293.63;8465239;28;20040;-80
2021/12/23 14:57:06;;;;;;;24.60;11.43;;;;;;;4.13;78.70;99287.69;8445107;28;20142;-80
2021/12/23 15:01:11;;;;;;;21.90;11.43;;;;;;;4.20;78.88;99283.03;8436397;28;20032;-79
2021/12/23 15:05:45;;;;;;;22.98;10.82;;;;;;;4.22;78.29;99289.06;8442438;28;20043;-81
2021/12/23 15:09:57;;;;;;;20.15;9.73;;;;;;;4.25;78.40;99273.13;8442544;28;20484;-79
2021/12/23 15:13:58;;;;;;;19.10;9.15;;;;;;;4.37;79.03;99265.03;8443791;28;20088;-79
2021/12/23 15:18:12;;;;;;;21.77;9.60;;;;;;;4.39;77.89;99257.47;8440552;28;20040;-79
2021/12/23 15:22:20;;;;;;;19.05;10.27;;;;;;;4.49;78.40;99251.50;8455781;28;20084;-80
2021/12/23 15:26:34;;;;;;;20.55;10.48;;;;;;;4.51;77.80;99252.94;8448404;28;20024;-81
2021/12/23 15:30:36;;;;;;;22.58;11.02;;;;;;;4.56;77.76;99239.47;8450343;28;20050;-79
2021/12/23 15:34:45;;;;;;;19.92;10.32;;;;;;;4.60;77.78;99230.84;8450663;27;20036;-80
2021/12/23 15:38:46;;;;;;;27.38;12.25;;;;;;;4.65;77.28;99239.19;8447719;27;20028;-82
2021/12/23 15:42:48;;;;;;;27.02;12.10;;;;;;;4.69;77.86;99232.22;8444671;28;20032;-79
2021/12/23 15:46:50;;;;;;;34.73;13.77;;;;;;;4.70;77.78;99233.88;8427187;28;20087;-81
2021/12/23 15:50:53;;;;;;;25.50;11.15;;;;;;;4.72;78.47;99229.03;8433249;28;20156;-79
2021/12/23 15:54:54;;;;;;;20.67;10.35;;;;;;;4.77;78.55;99240.13;8436251;28;20066;-79
2021/12/23 15:58:55;;;;;;;21.20;10.68;;;;;;;4.84;78.58;99238.13;8432745;28;20040;-79
2021/12/23 16:02:56;;;;;;;19.77;9.82;;;;;;;4.88;78.63;99244.84;8444712;28;20050;-79
2021/12/23 16:07:17;;;;;;;20.50;9.88;;;;;;;4.94;78.75;99234.91;8428591;28;20027;-79
2021/12/23 16:11:19;;;;;;;21.80;9.40;;;;;;;5.02;78.66;99237.31;8447767;28;20108;-80
2021/12/23 16:15:23;;;;;;;20.25;10.80;;;;;;;5.05;78.46;99236.03;8446835;28;20424;-80
2021/12/23 16:19:25;;;;;;;20.98;10.18;;;;;;;5.02;77.68;99243.59;8432421;28;20501;-80
2021/12/23 16:23:25;;;;;;;18.40;10.13;;;;;;;5.03;77.59;99244.47;8443237;28;20032;-79
2021/12/23 16:27:27;;;;;;;22.50;10.45;;;;;;;5.01;78.04;99238.38;8440311;28;20109;-79
2021/12/23 16:31:29;;;;;;;22.08;10.63;;;;;;;5.05;77.56;99236.84;8445350;28;20028;-80
2021/12/23 16:35:34;;;;;;;21.40;10.07;;;;;;;5.01;77.25;99238.38;8455405;28;20084;-80
2021/12/23 16:39:34;;;;;;;23.35;11.90;;;;;;;5.02;77.59;99229.13;8447375;27;20100;-80
2021/12/23 16:43:36;;;;;;;20.92;11.00;;;;;;;4.98;77.58;99234.19;8434325;28;20060;-79
2021/12/23 16:47:36;;;;;;;20.08;11.48;;;;;;;4.98;77.15;99230.66;8439637;28;20024;-79
2021/12/23 16:51:41;;;;;;;20.80;9.73;;;;;;;4.92;77.75;99213.28;8441225;28;20040;-79
2021/12/23 16:56:02;;;;;;;22.75;10.57;;;;;;;4.96;78.36;99213.66;8440993;28;20028;-79
2021/12/23 17:00:09;;;;;;;23.90;11.18;;;;;;;4.98;78.37;99217.00;8455682;28;20066;-79
2021/12/23 17:04:09;;;;;;;23.35;10.38;;;;;;;4.98;77.77;99206.91;8440606;27;20028;-79
2021/12/23 17:08:12;;;;;;;19.92;10.57;;;;;;;5.00;79.13;99214.88;8464239;27;20133;-79
2021/12/23 17:12:12;;;;;;;18.05;11.20;;;;;;;5.05;78.99;99200.53;8437614;28;20047;-79
2021/12/23 17:16:12;;;;;;;21.20;10.70;;;;;;;5.08;79.53;99191.88;8436051;28;20058;-79
2021/12/23 17:24:31;;;;;;;20.88;10.45;;;;;;;5.21;79.25;99189.81;8451867;28;20019;-79
2021/12/23 17:28:33;;;;;;;20.90;10.80;;;;;;;5.27;80.05;99171.69;8444758;28;20838;-79
2021/12/23 17:32:34;;;;;;;21.27;11.18;;;;;;;5.27;80.78;99163.47;8430320;28;20112;-80
2021/12/23 17:36:37;;;;;;;24.02;10.68;;;;;;;5.37;80.77;99182.88;8446889;28;20066;-79
2021/12/23 17:40:41;;;;;;;20.67;10.18;;;;;;;5.39;81.01;99167.09;8447049;27;20036;-79
2021/12/23 17:44:42;;;;;;;19.85;9.80;;;;;;;5.46;81.08;99167.81;8427602;28;20082;-79
2021/12/23 17:48:42;;;;;;;20.65;10.25;;;;;;;5.51;81.48;99188.16;8438379;28;20028;-79
2021/12/23 17:52:42;;;;;;;23.00;10.80;;;;;;;5.46;82.28;99192.41;8452027;28;20024;-79
2021/12/23 17:56:43;;;;;;;21.90;10.13;;;;;;;5.42;82.71;99185.75;8436620;28;20047;-79
2021/12/23 18:00:45;;;;;;;25.48;12.63;;;;;;;5.54;83.09;99176.75;8442021;28;20034;-79
2021/12/23 18:04:46;;;;;;;21.13;11.02;;;;;;;5.59;82.96;99168.69;8427404;28;20051;-79
2021/12/23 18:08:46;;;;;;;21.55;10.63;;;;;;;5.58;82.97;99178.78;8434763;28;20024;-79
2021/12/23 18:12:47;;;;;;;22.45;11.57;;;;;;;5.66;82.51;99167.53;8451397;28;20035;-80
2021/12/23 18:16:48;;;;;;;18.90;10.75;;;;;;;5.72;82.46;99182.16;8423079;28;20035;-79
2021/12/23 18:20:49;;;;;;;19.98;10.13;;;;;;;5.74;82.30;99192.84;8446873;28;20400;-79
2021/12/23 18:24:50;;;;;;;21.95;11.07;;;;;;;5.70;82.56;99208.88;8454059;28;20032;-80
2021/12/23 18:28:59;;;;;;;21.80;11.32;;;;;;;5.69;82.70;99208.06;8451995;28;20092;-79
2021/12/23 18:33:01;;;;;;;20.83;11.20;;;;;;;5.81;82.44;99210.84;8450189;28;20036;-80
2021/12/23 18:37:09;;;;;;;19.27;10.88;;;;;;;5.77;82.76;99201.44;8455514;28;20088;-81
2021/12/23 18:41:19;;;;;;;19.67;10.40;;;;;;;5.73;82.12;99186.56;8454313;28;20040;-79
2021/12/23 18:45:45;;;;;;;19.48;10.57;;;;;;;5.72;83.19;99196.66;8428646;28;20104;-80
2021/12/23 18:49:46;;;;;;;22.02;10.30;;;;;;;5.80;83.37;99186.44;8435887;28;20024;-78
2021/12/23 18:53:46;;;;;;;17.92;9.50;;;;;;;5.87;82.92;99176.25;8434911;28;20481;-79
2021/12/23 18:57:47;;;;;;;19.33;10.98;;;;;;;5.90;83.27;99173.03;8443148;28;20035;-80
2021/12/23 19:01:55;;;;;;;21.30;10.45;;;;;;;5.88;83.21;99178.75;8440061;28;20112;-80
2021/12/23 19:10:04;;;;;;;21.30;10.93;;;;;;;5.91;84.00;99186.47;8457140;28;20048;-81
2021/12/23 19:14:12;;;;;;;22.95;10.65;;;;;;;5.90;84.69;99181.25;8432324;28;20028;-80
2021/12/23 19:18:14;;;;;;;21.63;10.40;;;;;;;5.91;84.42;99183.75;8446977;28;20032;-81
2021/12/23 19:22:14;;;;;;;19.98;10.35;;;;;;;5.97;85.04;99184.72;8441896;28;20035;-81
2021/12/23 19:26:14;;;;;;;19.17;10.57;;;;;;;5.96;85.60;99184.97;8455247;28;20027;-80
2021/12/23 19:30:15;;;;;;;19.48;11.27;;;;;;;5.99;85.88;99173.56;8429969;28;20361;-81
2021/12/23 19:34:20;;;;;;;20.25;10.35;;;;;;;6.02;85.91;99178.56;8451291;28;20032;-80
2021/12/23 19:38:45;;;;;;;26.45;11.20;;;;;;;5.98;86.65;99182.81;8444245;27;20085;-81
2021/12/23 19:42:45;;;;;;;17.43;9.73;;;;;;;6.01;86.42;99180.47;8451563;28;20433;-80
2021/12/23 19:46:46;;;;;;;17.63;9.57;;;;;;;6.09;86.18;99179.28;8439785;27;20766;-80
2021/12/23 19:50:50;;;;;;;17.77;9.35;;;;;;;6.07;86.15;99181.44;8450946;28;20114;-79
2021/12/23 19:54:50;;;;;;;19.00;9.75;;;;;;;6.08;86.09;99178.44;8444006;28;20040;-79
2021/12/23 19:58:51;;;;;;;15.88;8.73;;;;;;;6.13;85.90;99172.28;8434748;28;20114;-80